sensor_id;sensor_type;location;lat;lon;timestamp;pressure;altitude;pressure_sealevel;temperature;humidity
4830;BME280;2429;52.586;14.322;2024-02-04T00:03:44;101601.94;;;5.90;100.00
4830;BME280;2429;52.586;14.322;2024-02-04T00:08:47;101611.44;;;5.93;100.00
4830;BME280;2429;52.586;14.322;2024-02-04T00:13:50;101587.19;;;5.91;100.00
4830;BME280;2429;52.586;14.322;2024-02-04T00:18:55;101578.63;;;5.86;100.00
4830;BME280;2429;52.586;14.322;2024-02-04T00:23:58;101585.41;;;5.94;100.00
4830;BME280;2429;52.586;14.322;2024-02-04T00:29:02;101601.06;;;5.91;100.00
4830;BME280;2429;52.586;14.322;2024-02-04T00:34:06;101594.22;;;5.87;100.00
4830;BME280;2429;52.586;14.322;2024-02-04T00:39:09;101575.09;;;5.90;100.00
4830;BME280;2429;52.586;14.322;2024-02-04T00:44:13;101579.28;;;5.95;100.00
4830;BME280;2429;52.586;14.322;2024-02-04T00:49:18;101586.25;;;5.95;100.00
4830;BME280;2429;52.586;14.322;2024-02-04T00:54:21;101575.91;;;5.92;100.00
4830;BME280;2429;52.586;14.322;2024-02-04T00:59:24;101555.91;;;5.94;100.00
4830;BME280;2429;52.586;14.322;2024-02-04T01:04:29;101564.72;;;5.88;100.00
4830;BME280;2429;52.586;14.322;2024-02-04T01:09:32;101572.53;;;5.88;100.00
4830;BME280;2429;52.586;14.322;2024-02-04T01:14:35;101567.34;;;5.85;100.00
4830;BME280;2429;52.586;14.322;2024-02-04T01:19:40;101583.03;;;5.82;100.00
4830;BME280;2429;52.586;14.322;2024-02-04T01:24:43;101578.75;;;5.81;100.00
4830;BME280;2429;52.586;14.322;2024-02-04T01:29:49;101579.78;;;5.72;100.00
4830;BME280;2429;52.586;14.322;2024-02-04T01:34:54;101584.13;;;5.70;100.00
4830;BME280;2429;52.586;14.322;2024-02-04T01:39:57;101586.69;;;5.72;100.00
4830;BME280;2429;52.586;14.322;2024-02-04T01:45:00;101598.78;;;5.74;100.00
4830;BME280;2429;52.586;14.322;2024-02-04T01:50:06;101576.25;;;5.75;100.00
4830;BME280;2429;52.586;14.322;2024-02-04T01:55:10;101570.22;;;5.73;100.00
4830;BME280;2429;52.586;14.322;2024-02-04T02:00:15;101575.69;;;5.60;100.00
4830;BME280;2429;52.586;14.322;2024-02-04T02:05:21;101569.69;;;5.55;100.00
4830;BME280;2429;52.586;14.322;2024-02-04T02:10:24;101571.56;;;5.48;100.00
4830;BME280;2429;52.586;14.322;2024-02-04T02:15:30;101580.28;;;5.46;100.00
4830;BME280;2429;52.586;14.322;2024-02-04T02:20:44;101580.41;;;5.40;100.00
4830;BME280;2429;52.586;14.322;2024-02-04T02:25:56;101576.31;;;5.26;100.00
4830;BME280;2429;52.586;14.322;2024-02-04T02:30:59;101570.31;;;5.24;100.00
4830;BME280;2429;52.586;14.322;2024-02-04T02:36:13;101574.69;;;5.21;100.00
4830;BME280;2429;52.586;14.322;2024-02-04T02:41:20;101562.66;;;5.17;100.00
4830;BME280;2429;52.586;14.322;2024-02-04T02:46:24;101561.81;;;5.15;100.00
4830;BME280;2429;52.586;14.322;2024-02-04T02:51:27;101556.50;;;5.21;100.00
4830;BME280;2429;52.586;14.322;2024-02-04T02:56:32;101558.88;;;5.33;100.00
4830;BME280;2429;52.586;14.322;2024-02-04T03:01:38;101561.31;;;5.41;100.00
4830;BME280;2429;52.586;14.322;2024-02-04T03:06:41;101551.66;;;5.47;100.00
4830;BME280;2429;52.586;14.322;2024-02-04T03:11:46;101552.47;;;5.51;100.00
4830;BME280;2429;52.586;14.322;2024-02-04T03:16:49;101539.38;;;5.56;100.00
4830;BME280;2429;52.586;14.322;2024-02-04T03:21:56;101536.63;;;5.63;100.00
4830;BME280;2429;52.586;14.322;2024-02-04T03:27:00;101514.13;;;5.61;100.00
4830;BME280;2429;52.586;14.322;2024-02-04T03:32:04;101508.06;;;5.60;100.00
4830;BME280;2429;52.586;14.322;2024-02-04T03:37:07;101516.63;;;5.65;100.00
4830;BME280;2429;52.586;14.322;2024-02-04T03:42:12;101500.22;;;5.63;100.00
4830;BME280;2429;52.586;14.322;2024-02-04T03:47:15;101477.63;;;5.65;100.00
4830;BME280;2429;52.586;14.322;2024-02-04T03:52:18;101480.25;;;5.64;100.00
4830;BME280;2429;52.586;14.322;2024-02-04T03:57:22;101497.69;;;5.60;100.00
4830;BME280;2429;52.586;14.322;2024-02-04T04:02:25;101498.59;;;5.58;100.00
4830;BME280;2429;52.586;14.322;2024-02-04T04:07:28;101497.78;;;5.56;100.00
4830;BME280;2429;52.586;14.322;2024-02-04T04:12:33;101484.72;;;5.59;100.00
4830;BME280;2429;52.586;14.322;2024-02-04T04:17:36;101489.13;;;5.54;100.00
4830;BME280;2429;52.586;14.322;2024-02-04T04:22:39;101482.34;;;5.48;100.00
4830;BME280;2429;52.586;14.322;2024-02-04T04:27:45;101493.63;;;5.47;100.00
4830;BME280;2429;52.586;14.322;2024-02-04T04:32:48;101500.59;;;5.45;100.00
4830;BME280;2429;52.586;14.322;2024-02-04T04:37:51;101478.88;;;5.47;100.00
4830;BME280;2429;52.586;14.322;2024-02-04T04:42:56;101491.88;;;5.47;100.00
4830;BME280;2429;52.586;14.322;2024-02-04T04:47:59;101470.38;;;5.39;100.00
4830;BME280;2429;52.586;14.322;2024-02-04T04:53:03;101466.06;;;5.38;100.00
4830;BME280;2429;52.586;14.322;2024-02-04T04:58:07;101454.97;;;5.32;100.00
4830;BME280;2429;52.586;14.322;2024-02-04T05:03:11;101460.13;;;5.33;100.00
4830;BME280;2429;52.586;14.322;2024-02-04T05:08:14;101442.91;;;5.27;100.00
4830;BME280;2429;52.586;14.322;2024-02-04T05:13:19;101445.50;;;5.27;100.00
4830;BME280;2429;52.586;14.322;2024-02-04T05:18:22;101447.25;;;5.25;100.00
4830;BME280;2429;52.586;14.322;2024-02-04T05:23:29;101445.59;;;5.23;100.00
4830;BME280;2429;52.586;14.322;2024-02-04T05:28:33;101444.66;;;5.25;100.00
4830;BME280;2429;52.586;14.322;2024-02-04T05:33:36;101441.31;;;5.20;100.00
4830;BME280;2429;52.586;14.322;2024-02-04T05:38:43;101442.31;;;5.13;100.00
4830;BME280;2429;52.586;14.322;2024-02-04T05:43:48;101437.22;;;5.08;100.00
4830;BME280;2429;52.586;14.322;2024-02-04T05:48:51;101426.06;;;5.05;100.00
4830;BME280;2429;52.586;14.322;2024-02-04T05:53:55;101434.78;;;5.01;100.00
4830;BME280;2429;52.586;14.322;2024-02-04T05:58:59;101439.19;;;4.97;100.00
4830;BME280;2429;52.586;14.322;2024-02-04T06:04:02;101435.00;;;4.90;100.00
4830;BME280;2429;52.586;14.322;2024-02-04T06:09:06;101437.59;;;4.90;100.00
4830;BME280;2429;52.586;14.322;2024-02-04T06:14:11;101428.94;;;4.89;100.00
4830;BME280;2429;52.586;14.322;2024-02-04T06:19:15;101436.69;;;4.91;100.00
4830;BME280;2429;52.586;14.322;2024-02-04T06:24:18;101437.72;;;4.84;100.00
4830;BME280;2429;52.586;14.322;2024-02-04T06:29:23;101432.38;;;4.91;100.00
4830;BME280;2429;52.586;14.322;2024-02-04T06:34:26;101450.53;;;4.93;100.00
4830;BME280;2429;52.586;14.322;2024-02-04T06:39:30;101463.50;;;4.93;100.00
4830;BME280;2429;52.586;14.322;2024-02-04T06:44:34;101475.50;;;5.00;100.00
4830;BME280;2429;52.586;14.322;2024-02-04T06:49:37;101449.41;;;5.06;100.00
4830;BME280;2429;52.586;14.322;2024-02-04T06:54:41;101429.41;;;5.10;100.00
4830;BME280;2429;52.586;14.322;2024-02-04T06:59:45;101420.66;;;5.14;100.00
4830;BME280;2429;52.586;14.322;2024-02-04T07:04:48;101419.78;;;5.15;100.00
4830;BME280;2429;52.586;14.322;2024-02-04T07:09:56;101405.78;;;5.21;100.00
4830;BME280;2429;52.586;14.322;2024-02-04T07:15:01;101410.94;;;5.22;100.00
4830;BME280;2429;52.586;14.322;2024-02-04T07:20:05;101416.78;;;5.34;100.00
4830;BME280;2429;52.586;14.322;2024-02-04T07:25:09;101418.31;;;5.44;100.00
4830;BME280;2429;52.586;14.322;2024-02-04T07:30:14;101422.47;;;5.53;100.00
4830;BME280;2429;52.586;14.322;2024-02-04T07:35:18;101429.94;;;5.67;100.00
4830;BME280;2429;52.586;14.322;2024-02-04T07:40:21;101416.72;;;5.76;100.00
4830;BME280;2429;52.586;14.322;2024-02-04T07:45:25;101412.31;;;5.79;100.00
4830;BME280;2429;52.586;14.322;2024-02-04T07:50:28;101407.25;;;5.75;100.00
4830;BME280;2429;52.586;14.322;2024-02-04T07:55:31;101404.38;;;5.86;100.00
4830;BME280;2429;52.586;14.322;2024-02-04T08:00:36;101412.84;;;5.94;100.00
4830;BME280;2429;52.586;14.322;2024-02-04T08:05:39;101405.72;;;6.04;100.00
4830;BME280;2429;52.586;14.322;2024-02-04T08:10:42;101394.44;;;6.05;100.00
4830;BME280;2429;52.586;14.322;2024-02-04T08:15:47;101382.88;;;6.15;100.00
4830;BME280;2429;52.586;14.322;2024-02-04T08:20:50;101367.75;;;6.29;100.00
4830;BME280;2429;52.586;14.322;2024-02-04T08:25:54;101371.03;;;6.38;100.00
4830;BME280;2429;52.586;14.322;2024-02-04T08:31:00;101362.88;;;6.50;100.00
4830;BME280;2429;52.586;14.322;2024-02-04T08:36:03;101364.41;;;6.59;100.00
4830;BME280;2429;52.586;14.322;2024-02-04T08:41:08;101352.88;;;6.67;100.00
4830;BME280;2429;52.586;14.322;2024-02-04T08:46:13;101354.94;;;6.86;100.00
4830;BME280;2429;52.586;14.322;2024-02-04T08:51:16;101350.38;;;6.94;100.00
4830;BME280;2429;52.586;14.322;2024-02-04T08:56:20;101353.38;;;7.10;100.00
4830;BME280;2429;52.586;14.322;2024-02-04T09:01:25;101347.47;;;7.05;100.00
4830;BME280;2429;52.586;14.322;2024-02-04T09:06:28;101349.28;;;7.01;100.00
4830;BME280;2429;52.586;14.322;2024-02-04T09:11:31;101327.41;;;7.07;100.00
4830;BME280;2429;52.586;14.322;2024-02-04T09:16:38;101312.97;;;7.25;100.00
4830;BME280;2429;52.586;14.322;2024-02-04T09:21:42;101331.59;;;7.41;100.00
4830;BME280;2429;52.586;14.322;2024-02-04T09:26:45;101331.69;;;7.38;100.00
4830;BME280;2429;52.586;14.322;2024-02-04T09:31:50;101323.81;;;7.39;100.00
4830;BME280;2429;52.586;14.322;2024-02-04T09:36:54;101312.56;;;7.39;100.00
4830;BME280;2429;52.586;14.322;2024-02-04T09:41:57;101299.22;;;7.48;100.00
4830;BME280;2429;52.586;14.322;2024-02-04T09:47:03;101302.66;;;7.49;100.00
4830;BME280;2429;52.586;14.322;2024-02-04T09:52:08;101323.13;;;7.61;100.00
4830;BME280;2429;52.586;14.322;2024-02-04T09:57:12;101318.53;;;7.69;100.00
4830;BME280;2429;52.586;14.322;2024-02-04T10:02:18;101326.97;;;7.49;100.00
4830;BME280;2429;52.586;14.322;2024-02-04T10:07:23;101314.03;;;7.46;100.00
4830;BME280;2429;52.586;14.322;2024-02-04T10:12:27;101306.00;;;7.54;100.00
4830;BME280;2429;52.586;14.322;2024-02-04T10:17:32;101313.81;;;7.54;100.00
4830;BME280;2429;52.586;14.322;2024-02-04T10:22:35;101303.25;;;7.58;100.00
4830;BME280;2429;52.586;14.322;2024-02-04T10:27:38;101289.44;;;7.55;100.00
4830;BME280;2429;52.586;14.322;2024-02-04T10:32:43;101288.22;;;7.38;100.00
4830;BME280;2429;52.586;14.322;2024-02-04T10:37:47;101294.16;;;7.44;100.00
4830;BME280;2429;52.586;14.322;2024-02-04T10:42:51;101287.38;;;7.38;100.00
4830;BME280;2429;52.586;14.322;2024-02-04T10:48:01;101272.38;;;7.45;100.00
4830;BME280;2429;52.586;14.322;2024-02-04T10:53:05;101242.28;;;7.61;100.00
4830;BME280;2429;52.586;14.322;2024-02-04T10:58:11;101241.38;;;7.62;100.00
4830;BME280;2429;52.586;14.322;2024-02-04T11:03:17;101242.56;;;7.79;100.00
4830;BME280;2429;52.586;14.322;2024-02-04T11:08:25;101239.16;;;7.76;100.00
4830;BME280;2429;52.586;14.322;2024-02-04T11:13:29;101214.97;;;7.71;100.00
4830;BME280;2429;52.586;14.322;2024-02-04T11:18:59;101212.66;;;7.89;100.00
4830;BME280;2429;52.586;14.322;2024-02-04T11:24:16;101230.25;;;8.07;100.00
4830;BME280;2429;52.586;14.322;2024-02-04T11:29:21;101223.47;;;8.03;100.00
4830;BME280;2429;52.586;14.322;2024-02-04T11:34:26;101209.16;;;7.90;100.00
4830;BME280;2429;52.586;14.322;2024-02-04T11:39:30;101197.03;;;7.87;100.00
4830;BME280;2429;52.586;14.322;2024-02-04T11:44:33;101193.31;;;7.94;100.00
4830;BME280;2429;52.586;14.322;2024-02-04T11:49:38;101180.00;;;7.77;100.00
4830;BME280;2429;52.586;14.322;2024-02-04T11:54:45;101183.00;;;7.91;100.00
4830;BME280;2429;52.586;14.322;2024-02-04T11:59:48;101176.06;;;7.90;100.00
4830;BME280;2429;52.586;14.322;2024-02-04T12:04:53;101173.28;;;7.95;100.00
4830;BME280;2429;52.586;14.322;2024-02-04T12:09:57;101163.53;;;8.00;100.00
4830;BME280;2429;52.586;14.322;2024-02-04T12:15:01;101167.66;;;8.06;100.00
4830;BME280;2429;52.586;14.322;2024-02-04T12:20:09;101148.50;;;8.07;100.00
4830;BME280;2429;52.586;14.322;2024-02-04T12:25:13;101151.06;;;8.08;100.00
4830;BME280;2429;52.586;14.322;2024-02-04T12:30:16;101148.69;;;8.02;100.00
4830;BME280;2429;52.586;14.322;2024-02-04T12:35:21;101167.78;;;8.03;100.00
4830;BME280;2429;52.586;14.322;2024-02-04T12:40:25;101155.31;;;7.87;100.00
4830;BME280;2429;52.586;14.322;2024-02-04T12:45:29;101146.53;;;7.90;100.00
4830;BME280;2429;52.586;14.322;2024-02-04T12:50:36;101172.09;;;8.04;100.00
4830;BME280;2429;52.586;14.322;2024-02-04T12:55:40;101179.09;;;8.03;100.00
4830;BME280;2429;52.586;14.322;2024-02-04T13:00:45;101157.97;;;8.09;100.00
4830;BME280;2429;52.586;14.322;2024-02-04T13:05:49;101152.25;;;8.00;100.00
4830;BME280;2429;52.586;14.322;2024-02-04T13:10:54;101145.41;;;7.95;100.00
4830;BME280;2429;52.586;14.322;2024-02-04T13:15:58;101134.91;;;7.99;100.00
4830;BME280;2429;52.586;14.322;2024-02-04T13:21:02;101139.19;;;8.00;100.00
4830;BME280;2429;52.586;14.322;2024-02-04T13:26:06;101155.06;;;7.93;100.00
4830;BME280;2429;52.586;14.322;2024-02-04T13:31:09;101153.03;;;7.78;100.00
4830;BME280;2429;52.586;14.322;2024-02-04T13:36:14;101171.56;;;7.70;100.00
4830;BME280;2429;52.586;14.322;2024-02-04T13:41:18;101176.22;;;7.61;100.00
4830;BME280;2429;52.586;14.322;2024-02-04T13:46:21;101163.47;;;7.53;100.00
4830;BME280;2429;52.586;14.322;2024-02-04T13:51:26;101153.81;;;7.55;100.00
4830;BME280;2429;52.586;14.322;2024-02-04T13:56:44;101150.53;;;7.50;100.00
4830;BME280;2429;52.586;14.322;2024-02-04T14:01:48;101137.28;;;7.56;100.00
4830;BME280;2429;52.586;14.322;2024-02-04T14:06:53;101147.81;;;7.53;100.00
4830;BME280;2429;52.586;14.322;2024-02-04T14:11:56;101127.91;;;7.50;100.00
4830;BME280;2429;52.586;14.322;2024-02-04T14:17:00;101124.72;;;7.42;100.00
4830;BME280;2429;52.586;14.322;2024-02-04T14:22:04;101132.59;;;7.40;100.00
4830;BME280;2429;52.586;14.322;2024-02-04T14:27:08;101135.44;;;7.33;100.00
4830;BME280;2429;52.586;14.322;2024-02-04T14:32:11;101132.91;;;7.31;100.00
4830;BME280;2429;52.586;14.322;2024-02-04T14:37:16;101137.38;;;7.28;100.00
4830;BME280;2429;52.586;14.322;2024-02-04T14:42:19;101134.97;;;7.21;100.00
4830;BME280;2429;52.586;14.322;2024-02-04T14:47:22;101153.19;;;7.23;100.00
4830;BME280;2429;52.586;14.322;2024-02-04T14:52:27;101140.94;;;7.25;100.00
4830;BME280;2429;52.586;14.322;2024-02-04T14:57:30;101127.91;;;7.25;100.00
4830;BME280;2429;52.586;14.322;2024-02-04T15:02:33;101133.94;;;7.27;100.00
4830;BME280;2429;52.586;14.322;2024-02-04T15:07:38;101131.31;;;7.27;100.00
4830;BME280;2429;52.586;14.322;2024-02-04T15:12:41;101129.66;;;7.24;100.00
4830;BME280;2429;52.586;14.322;2024-02-04T15:17:45;101122.75;;;7.23;100.00
4830;BME280;2429;52.586;14.322;2024-02-04T15:22:51;101122.94;;;7.17;100.00
4830;BME280;2429;52.586;14.322;2024-02-04T15:27:56;101121.28;;;7.15;100.00
4830;BME280;2429;52.586;14.322;2024-02-04T15:32:59;101119.34;;;7.21;100.00
4830;BME280;2429;52.586;14.322;2024-02-04T15:38:04;101108.88;;;7.23;100.00
4830;BME280;2429;52.586;14.322;2024-02-04T15:43:07;101101.38;;;7.14;100.00
4830;BME280;2429;52.586;14.322;2024-02-04T15:48:16;101106.75;;;7.07;100.00
4830;BME280;2429;52.586;14.322;2024-02-04T15:53:22;101111.84;;;7.12;100.00
4830;BME280;2429;52.586;14.322;2024-02-04T15:58:27;101101.53;;;7.07;100.00
4830;BME280;2429;52.586;14.322;2024-02-04T16:03:32;101102.31;;;7.11;100.00
4830;BME280;2429;52.586;14.322;2024-02-04T16:08:38;101104.97;;;7.10;100.00
4830;BME280;2429;52.586;14.322;2024-02-04T16:13:41;101104.06;;;7.11;100.00
4830;BME280;2429;52.586;14.322;2024-02-04T16:18:45;101084.06;;;7.11;100.00
4830;BME280;2429;52.586;14.322;2024-02-04T16:23:50;101091.84;;;7.13;100.00
4830;BME280;2429;52.586;14.322;2024-02-04T16:28:54;101082.34;;;7.10;100.00
4830;BME280;2429;52.586;14.322;2024-02-04T16:33:57;101079.69;;;7.12;100.00
4830;BME280;2429;52.586;14.322;2024-02-04T16:39:02;101073.47;;;7.16;100.00
4830;BME280;2429;52.586;14.322;2024-02-04T16:44:08;101081.31;;;7.16;100.00
4830;BME280;2429;52.586;14.322;2024-02-04T16:49:12;101074.94;;;7.24;100.00
4830;BME280;2429;52.586;14.322;2024-02-04T16:54:22;101064.81;;;7.15;100.00
4830;BME280;2429;52.586;14.322;2024-02-04T16:59:30;101069.81;;;7.21;100.00
4830;BME280;2429;52.586;14.322;2024-02-04T17:04:34;101067.47;;;7.14;100.00
4830;BME280;2429;52.586;14.322;2024-02-04T17:09:39;101063.22;;;7.11;100.00
4830;BME280;2429;52.586;14.322;2024-02-04T17:14:43;101051.78;;;7.15;100.00
4830;BME280;2429;52.586;14.322;2024-02-04T17:19:57;101058.69;;;7.16;100.00
4830;BME280;2429;52.586;14.322;2024-02-04T17:25:12;101051.84;;;7.14;100.00
4830;BME280;2429;52.586;14.322;2024-02-04T17:30:21;101064.94;;;7.12;100.00
4830;BME280;2429;52.586;14.322;2024-02-04T17:35:24;101051.09;;;7.10;100.00
4830;BME280;2429;52.586;14.322;2024-02-04T17:40:32;101038.94;;;7.11;100.00
4830;BME280;2429;52.586;14.322;2024-02-04T17:45:35;101029.34;;;7.11;100.00
4830;BME280;2429;52.586;14.322;2024-02-04T17:50:39;101042.16;;;7.17;100.00
4830;BME280;2429;52.586;14.322;2024-02-04T17:55:43;101015.31;;;7.15;100.00
4830;BME280;2429;52.586;14.322;2024-02-04T18:00:47;101023.97;;;7.16;100.00
4830;BME280;2429;52.586;14.322;2024-02-04T18:05:50;101023.91;;;7.17;100.00
4830;BME280;2429;52.586;14.322;2024-02-04T18:10:55;101030.88;;;7.17;100.00
4830;BME280;2429;52.586;14.322;2024-02-04T18:15:59;101024.69;;;7.19;100.00
4830;BME280;2429;52.586;14.322;2024-02-04T18:21:02;101018.75;;;7.16;100.00
4830;BME280;2429;52.586;14.322;2024-02-04T18:26:18;101022.19;;;7.16;100.00
4830;BME280;2429;52.586;14.322;2024-02-04T18:31:21;101013.53;;;7.16;100.00
4830;BME280;2429;52.586;14.322;2024-02-04T18:36:25;101009.22;;;7.15;100.00
4830;BME280;2429;52.586;14.322;2024-02-04T18:41:31;101014.38;;;7.16;100.00
4830;BME280;2429;52.586;14.322;2024-02-04T18:46:38;101001.41;;;7.15;100.00
4830;BME280;2429;52.586;14.322;2024-02-04T18:51:43;101003.13;;;7.16;100.00
4830;BME280;2429;52.586;14.322;2024-02-04T18:56:49;101016.09;;;7.17;100.00
4830;BME280;2429;52.586;14.322;2024-02-04T19:01:53;101016.22;;;7.14;100.00
4830;BME280;2429;52.586;14.322;2024-02-04T19:06:57;101014.50;;;7.13;100.00
4830;BME280;2429;52.586;14.322;2024-02-04T19:12:04;101014.50;;;7.13;100.00
4830;BME280;2429;52.586;14.322;2024-02-04T19:17:07;101016.25;;;7.13;100.00
4830;BME280;2429;52.586;14.322;2024-02-04T19:22:11;101020.53;;;7.15;100.00
4830;BME280;2429;52.586;14.322;2024-02-04T19:27:16;101017.09;;;7.13;100.00
4830;BME280;2429;52.586;14.322;2024-02-04T19:32:19;101032.69;;;7.15;100.00
4830;BME280;2429;52.586;14.322;2024-02-04T19:37:22;101027.00;;;7.03;100.00
4830;BME280;2429;52.586;14.322;2024-02-04T19:42:27;101019.47;;;6.96;100.00
4830;BME280;2429;52.586;14.322;2024-02-04T19:47:30;101005.56;;;6.95;100.00
4830;BME280;2429;52.586;14.322;2024-02-04T19:52:33;101008.50;;;6.86;100.00
4830;BME280;2429;52.586;14.322;2024-02-04T19:57:38;100993.97;;;6.79;100.00
4830;BME280;2429;52.586;14.322;2024-02-04T20:02:41;100995.19;;;6.68;100.00
4830;BME280;2429;52.586;14.322;2024-02-04T20:07:45;100988.19;;;6.70;100.00
4830;BME280;2429;52.586;14.322;2024-02-04T20:12:50;100965.91;;;6.62;100.00
4830;BME280;2429;52.586;14.322;2024-02-04T20:17:54;100966.91;;;6.58;100.00
4830;BME280;2429;52.586;14.322;2024-02-04T20:22:58;100955.44;;;6.63;100.00
4830;BME280;2429;52.586;14.322;2024-02-04T20:28:03;100951.25;;;6.59;100.00
4830;BME280;2429;52.586;14.322;2024-02-04T20:33:06;100947.69;;;6.62;100.00
4830;BME280;2429;52.586;14.322;2024-02-04T20:38:10;100944.72;;;6.73;100.00
4830;BME280;2429;52.586;14.322;2024-02-04T20:43:15;100954.28;;;6.72;100.00
4830;BME280;2429;52.586;14.322;2024-02-04T20:48:18;100953.47;;;6.70;100.00
4830;BME280;2429;52.586;14.322;2024-02-04T20:53:22;100949.28;;;6.66;100.00
4830;BME280;2429;52.586;14.322;2024-02-04T20:58:26;100944.91;;;6.66;100.00
4830;BME280;2429;52.586;14.322;2024-02-04T21:03:30;100931.97;;;6.65;100.00
4830;BME280;2429;52.586;14.322;2024-02-04T21:08:33;100931.19;;;6.61;100.00
4830;BME280;2429;52.586;14.322;2024-02-04T21:13:38;100932.16;;;6.59;100.00
4830;BME280;2429;52.586;14.322;2024-02-04T21:18:41;100927.13;;;6.54;100.00
4830;BME280;2429;52.586;14.322;2024-02-04T21:23:45;100915.06;;;6.51;100.00
4830;BME280;2429;52.586;14.322;2024-02-04T21:28:49;100908.19;;;6.49;100.00
4830;BME280;2429;52.586;14.322;2024-02-04T21:33:52;100904.03;;;6.43;100.00
4830;BME280;2429;52.586;14.322;2024-02-04T21:38:56;100889.97;;;6.49;100.00
4830;BME280;2429;52.586;14.322;2024-02-04T21:44:00;100898.69;;;6.48;100.00
4830;BME280;2429;52.586;14.322;2024-02-04T21:49:03;100902.25;;;6.45;100.00
4830;BME280;2429;52.586;14.322;2024-02-04T21:54:07;100892.91;;;6.40;100.00
4830;BME280;2429;52.586;14.322;2024-02-04T21:59:12;100884.47;;;6.31;100.00
4830;BME280;2429;52.586;14.322;2024-02-04T22:04:15;100883.63;;;6.31;100.00
4830;BME280;2429;52.586;14.322;2024-02-04T22:09:19;100878.66;;;6.25;100.00
4830;BME280;2429;52.586;14.322;2024-02-04T22:14:25;100869.41;;;6.16;100.00
4830;BME280;2429;52.586;14.322;2024-02-04T22:19:28;100859.97;;;6.12;100.00
4830;BME280;2429;52.586;14.322;2024-02-04T22:24:32;100843.31;;;6.17;100.00
4830;BME280;2429;52.586;14.322;2024-02-04T22:29:36;100841.59;;;6.18;100.00
4830;BME280;2429;52.586;14.322;2024-02-04T22:34:41;100836.78;;;6.06;100.00
4830;BME280;2429;52.586;14.322;2024-02-04T22:39:44;100831.69;;;6.03;100.00
4830;BME280;2429;52.586;14.322;2024-02-04T22:44:48;100826.59;;;5.99;100.00
4830;BME280;2429;52.586;14.322;2024-02-04T22:49:52;100823.00;;;6.04;100.00
4830;BME280;2429;52.586;14.322;2024-02-04T22:54:55;100834.47;;;5.96;100.00
4830;BME280;2429;52.586;14.322;2024-02-04T23:00:00;100831.00;;;5.97;100.00
4830;BME280;2429;52.586;14.322;2024-02-04T23:05:03;100825.81;;;5.96;100.00
4830;BME280;2429;52.586;14.322;2024-02-04T23:10:07;100824.09;;;5.95;100.00
4830;BME280;2429;52.586;14.322;2024-02-04T23:15:12;100816.31;;;5.95;100.00
4830;BME280;2429;52.586;14.322;2024-02-04T23:20:16;100814.69;;;5.91;100.00
4830;BME280;2429;52.586;14.322;2024-02-04T23:25:21;100806.06;;;5.90;100.00
4830;BME280;2429;52.586;14.322;2024-02-04T23:30:29;100816.41;;;5.92;100.00
4830;BME280;2429;52.586;14.322;2024-02-04T23:35:33;100796.56;;;5.89;100.00
4830;BME280;2429;52.586;14.322;2024-02-04T23:40:36;100791.63;;;5.81;100.00
4830;BME280;2429;52.586;14.322;2024-02-04T23:45:40;100780.16;;;5.87;100.00
4830;BME280;2429;52.586;14.322;2024-02-04T23:50:44;100761.25;;;5.82;100.00
4830;BME280;2429;52.586;14.322;2024-02-04T23:55:49;100757.91;;;5.78;100.00
